Terminal Aerodrome Forecast
Issued by NWS Wilmington, NC

Home | Current Version | Previous Version | Text Only | Print | Product List | Glossary On
Versions: 1 2 3 4 5 6 7 8 9 10 11 12 13 14
000
FTUS42 KILM 101700
TAFLBT
TAF
KLBT 101723Z 1018/1118 24006KT P6SM VCTS SCT040CB BKN060
      TEMPO 1020/1024 VRB15G30KT 2SM +TSRA SCT010 BKN020CB
     FM110800 VRB03KT 3SM BR SCT010 SCT040 BKN100
     FM111300 VRB05KT P6SM SCT050 BKN100=

USA.gov is the U.S. government's official web portal to all federal, state and local government web resources and services.